sensor_id;sensor_type;location;lat;lon;timestamp;P1;durP1;ratioP1;P2;durP2;ratioP2
43048;SDS011;28673;44.412;11.918;2024-03-02T00:01:10;12.95;;;7.07;;
43048;SDS011;28673;44.412;11.918;2024-03-02T00:03:36;10.75;;;7.07;;
43048;SDS011;28673;44.412;11.918;2024-03-02T00:06:03;11.10;;;6.85;;
43048;SDS011;28673;44.412;11.918;2024-03-02T00:08:29;11.90;;;6.97;;
43048;SDS011;28673;44.412;11.918;2024-03-02T00:10:59;10.60;;;7.35;;
43048;SDS011;28673;44.412;11.918;2024-03-02T00:13:28;10.40;;;7.18;;
43048;SDS011;28673;44.412;11.918;2024-03-02T00:15:56;10.45;;;6.85;;
43048;SDS011;28673;44.412;11.918;2024-03-02T00:18:26;13.52;;;7.18;;
43048;SDS011;28673;44.412;11.918;2024-03-02T00:20:56;10.18;;;6.68;;
43048;SDS011;28673;44.412;11.918;2024-03-02T00:23:22;11.05;;;6.82;;
43048;SDS011;28673;44.412;11.918;2024-03-02T00:25:50;8.48;;;5.65;;
43048;SDS011;28673;44.412;11.918;2024-03-02T00:28:26;12.53;;;7.67;;
43048;SDS011;28673;44.412;11.918;2024-03-02T00:33:22;9.95;;;7.43;;
43048;SDS011;28673;44.412;11.918;2024-03-02T00:35:48;9.20;;;6.32;;
43048;SDS011;28673;44.412;11.918;2024-03-02T00:38:15;11.00;;;6.45;;
43048;SDS011;28673;44.412;11.918;2024-03-02T00:40:44;9.95;;;6.35;;
43048;SDS011;28673;44.412;11.918;2024-03-02T00:43:21;13.32;;;7.43;;
43048;SDS011;28673;44.412;11.918;2024-03-02T00:45:54;9.45;;;5.65;;
43048;SDS011;28673;44.412;11.918;2024-03-02T00:48:20;9.70;;;6.30;;
43048;SDS011;28673;44.412;11.918;2024-03-02T00:50:49;10.73;;;7.78;;
43048;SDS011;28673;44.412;11.918;2024-03-02T00:53:17;10.82;;;6.72;;
43048;SDS011;28673;44.412;11.918;2024-03-02T00:55:49;7.07;;;5.22;;
43048;SDS011;28673;44.412;11.918;2024-03-02T00:58:15;9.80;;;7.05;;
43048;SDS011;28673;44.412;11.918;2024-03-02T01:00:41;12.02;;;7.25;;
43048;SDS011;28673;44.412;11.918;2024-03-02T01:03:07;7.65;;;5.90;;
43048;SDS011;28673;44.412;11.918;2024-03-02T01:05:33;9.18;;;7.18;;
43048;SDS011;28673;44.412;11.918;2024-03-02T01:07:59;12.35;;;7.80;;
43048;SDS011;28673;44.412;11.918;2024-03-02T01:10:24;10.95;;;7.38;;
43048;SDS011;28673;44.412;11.918;2024-03-02T01:12:53;9.15;;;6.55;;
43048;SDS011;28673;44.412;11.918;2024-03-02T01:15:19;10.88;;;7.40;;
43048;SDS011;28673;44.412;11.918;2024-03-02T01:17:45;17.17;;;7.10;;
43048;SDS011;28673;44.412;11.918;2024-03-02T01:20:10;10.95;;;7.72;;
43048;SDS011;28673;44.412;11.918;2024-03-02T01:22:36;11.43;;;8.63;;
43048;SDS011;28673;44.412;11.918;2024-03-02T01:25:02;9.75;;;7.72;;
43048;SDS011;28673;44.412;11.918;2024-03-02T01:27:29;12.60;;;7.50;;
43048;SDS011;28673;44.412;11.918;2024-03-02T01:29:54;10.32;;;7.40;;
43048;SDS011;28673;44.412;11.918;2024-03-02T01:32:20;9.70;;;7.57;;
43048;SDS011;28673;44.412;11.918;2024-03-02T01:34:46;13.57;;;8.55;;
43048;SDS011;28673;44.412;11.918;2024-03-02T01:37:12;12.50;;;9.02;;
43048;SDS011;28673;44.412;11.918;2024-03-02T01:39:38;11.07;;;8.40;;
43048;SDS011;28673;44.412;11.918;2024-03-02T01:42:04;10.80;;;8.05;;
43048;SDS011;28673;44.412;11.918;2024-03-02T01:44:30;12.98;;;7.75;;
43048;SDS011;28673;44.412;11.918;2024-03-02T01:46:56;9.05;;;8.02;;
43048;SDS011;28673;44.412;11.918;2024-03-02T01:49:21;9.82;;;7.93;;
43048;SDS011;28673;44.412;11.918;2024-03-02T01:51:47;8.13;;;6.70;;
43048;SDS011;28673;44.412;11.918;2024-03-02T01:54:13;10.57;;;6.90;;
43048;SDS011;28673;44.412;11.918;2024-03-02T01:56:39;8.65;;;6.68;;
43048;SDS011;28673;44.412;11.918;2024-03-02T01:59:05;12.27;;;8.10;;
43048;SDS011;28673;44.412;11.918;2024-03-02T02:01:31;10.45;;;6.93;;
43048;SDS011;28673;44.412;11.918;2024-03-02T02:03:57;12.30;;;6.20;;
43048;SDS011;28673;44.412;11.918;2024-03-02T02:06:22;9.63;;;7.40;;
43048;SDS011;28673;44.412;11.918;2024-03-02T02:08:48;8.55;;;6.97;;
43048;SDS011;28673;44.412;11.918;2024-03-02T02:11:15;8.52;;;6.28;;
43048;SDS011;28673;44.412;11.918;2024-03-02T02:13:41;10.40;;;6.35;;
43048;SDS011;28673;44.412;11.918;2024-03-02T02:16:07;8.38;;;6.07;;
43048;SDS011;28673;44.412;11.918;2024-03-02T02:18:33;10.70;;;6.50;;
43048;SDS011;28673;44.412;11.918;2024-03-02T02:21:00;13.55;;;6.35;;
43048;SDS011;28673;44.412;11.918;2024-03-02T02:23:26;8.10;;;6.60;;
43048;SDS011;28673;44.412;11.918;2024-03-02T02:25:51;13.45;;;6.65;;
43048;SDS011;28673;44.412;11.918;2024-03-02T02:28:17;9.10;;;5.97;;
43048;SDS011;28673;44.412;11.918;2024-03-02T02:30:43;9.57;;;6.28;;
43048;SDS011;28673;44.412;11.918;2024-03-02T02:33:08;8.38;;;5.28;;
43048;SDS011;28673;44.412;11.918;2024-03-02T02:35:34;8.38;;;6.60;;
43048;SDS011;28673;44.412;11.918;2024-03-02T02:38:00;7.55;;;5.80;;
43048;SDS011;28673;44.412;11.918;2024-03-02T02:40:27;10.85;;;6.22;;
43048;SDS011;28673;44.412;11.918;2024-03-02T02:42:56;10.07;;;7.43;;
43048;SDS011;28673;44.412;11.918;2024-03-02T02:45:24;10.25;;;6.55;;
43048;SDS011;28673;44.412;11.918;2024-03-02T02:47:50;11.48;;;7.40;;
43048;SDS011;28673;44.412;11.918;2024-03-02T02:50:16;8.32;;;6.30;;
43048;SDS011;28673;44.412;11.918;2024-03-02T02:52:42;7.38;;;6.28;;
43048;SDS011;28673;44.412;11.918;2024-03-02T02:55:11;11.40;;;6.80;;
43048;SDS011;28673;44.412;11.918;2024-03-02T02:57:39;9.25;;;6.47;;
43048;SDS011;28673;44.412;11.918;2024-03-02T03:02:40;10.30;;;7.97;;
43048;SDS011;28673;44.412;11.918;2024-03-02T03:05:07;8.43;;;6.00;;
43048;SDS011;28673;44.412;11.918;2024-03-02T03:07:34;8.52;;;6.63;;
43048;SDS011;28673;44.412;11.918;2024-03-02T03:10:01;9.73;;;6.88;;
43048;SDS011;28673;44.412;11.918;2024-03-02T03:12:29;15.00;;;6.88;;
43048;SDS011;28673;44.412;11.918;2024-03-02T03:14:56;11.20;;;7.28;;
43048;SDS011;28673;44.412;11.918;2024-03-02T03:17:22;13.45;;;7.80;;
43048;SDS011;28673;44.412;11.918;2024-03-02T03:19:48;9.38;;;6.43;;
43048;SDS011;28673;44.412;11.918;2024-03-02T03:22:15;8.05;;;6.88;;
43048;SDS011;28673;44.412;11.918;2024-03-02T03:24:41;10.05;;;8.00;;
43048;SDS011;28673;44.412;11.918;2024-03-02T03:27:06;10.98;;;7.63;;
43048;SDS011;28673;44.412;11.918;2024-03-02T03:29:32;12.82;;;8.75;;
43048;SDS011;28673;44.412;11.918;2024-03-02T03:31:58;10.52;;;6.93;;
43048;SDS011;28673;44.412;11.918;2024-03-02T03:34:24;10.85;;;7.72;;
43048;SDS011;28673;44.412;11.918;2024-03-02T03:36:49;9.55;;;8.30;;
43048;SDS011;28673;44.412;11.918;2024-03-02T03:39:15;8.48;;;6.45;;
43048;SDS011;28673;44.412;11.918;2024-03-02T03:41:41;11.80;;;7.72;;
43048;SDS011;28673;44.412;11.918;2024-03-02T03:44:06;10.15;;;7.07;;
43048;SDS011;28673;44.412;11.918;2024-03-02T03:46:32;9.07;;;7.03;;
43048;SDS011;28673;44.412;11.918;2024-03-02T03:48:58;8.38;;;6.68;;
43048;SDS011;28673;44.412;11.918;2024-03-02T03:51:24;9.90;;;7.00;;
43048;SDS011;28673;44.412;11.918;2024-03-02T03:53:50;11.70;;;7.85;;
43048;SDS011;28673;44.412;11.918;2024-03-02T03:56:15;10.77;;;7.18;;
43048;SDS011;28673;44.412;11.918;2024-03-02T03:58:41;7.97;;;7.07;;
43048;SDS011;28673;44.412;11.918;2024-03-02T04:01:07;9.80;;;7.07;;
43048;SDS011;28673;44.412;11.918;2024-03-02T04:03:33;8.30;;;6.78;;
43048;SDS011;28673;44.412;11.918;2024-03-02T04:05:59;9.90;;;6.82;;
43048;SDS011;28673;44.412;11.918;2024-03-02T04:08:24;8.68;;;6.93;;
43048;SDS011;28673;44.412;11.918;2024-03-02T04:10:50;8.75;;;6.95;;
43048;SDS011;28673;44.412;11.918;2024-03-02T04:13:16;11.88;;;7.55;;
43048;SDS011;28673;44.412;11.918;2024-03-02T04:15:42;13.43;;;8.13;;
43048;SDS011;28673;44.412;11.918;2024-03-02T04:18:07;10.68;;;7.80;;
43048;SDS011;28673;44.412;11.918;2024-03-02T04:20:33;8.93;;;7.00;;
43048;SDS011;28673;44.412;11.918;2024-03-02T04:22:59;9.30;;;7.90;;
43048;SDS011;28673;44.412;11.918;2024-03-02T04:25:24;8.82;;;6.38;;
43048;SDS011;28673;44.412;11.918;2024-03-02T04:27:50;11.38;;;6.60;;
43048;SDS011;28673;44.412;11.918;2024-03-02T04:30:16;9.27;;;6.63;;
43048;SDS011;28673;44.412;11.918;2024-03-02T04:32:42;8.00;;;6.18;;
43048;SDS011;28673;44.412;11.918;2024-03-02T04:35:11;8.90;;;5.45;;
43048;SDS011;28673;44.412;11.918;2024-03-02T04:37:37;7.65;;;5.70;;
43048;SDS011;28673;44.412;11.918;2024-03-02T04:40:03;8.70;;;6.70;;
43048;SDS011;28673;44.412;11.918;2024-03-02T04:42:33;6.57;;;5.82;;
43048;SDS011;28673;44.412;11.918;2024-03-02T04:44:59;10.10;;;6.15;;
43048;SDS011;28673;44.412;11.918;2024-03-02T04:47:25;10.68;;;6.20;;
43048;SDS011;28673;44.412;11.918;2024-03-02T04:49:51;6.35;;;5.25;;
43048;SDS011;28673;44.412;11.918;2024-03-02T04:52:16;9.73;;;6.00;;
43048;SDS011;28673;44.412;11.918;2024-03-02T04:54:42;7.07;;;5.63;;
43048;SDS011;28673;44.412;11.918;2024-03-02T04:57:26;7.15;;;5.72;;
43048;SDS011;28673;44.412;11.918;2024-03-02T04:59:52;6.85;;;5.25;;
43048;SDS011;28673;44.412;11.918;2024-03-02T05:02:18;7.20;;;5.90;;
43048;SDS011;28673;44.412;11.918;2024-03-02T05:04:44;6.13;;;5.32;;
43048;SDS011;28673;44.412;11.918;2024-03-02T05:07:10;7.60;;;6.43;;
43048;SDS011;28673;44.412;11.918;2024-03-02T05:09:35;7.47;;;5.75;;
43048;SDS011;28673;44.412;11.918;2024-03-02T05:12:01;7.57;;;6.43;;
43048;SDS011;28673;44.412;11.918;2024-03-02T05:14:36;9.65;;;6.55;;
43048;SDS011;28673;44.412;11.918;2024-03-02T05:17:03;8.90;;;5.88;;
43048;SDS011;28673;44.412;11.918;2024-03-02T05:19:29;8.07;;;6.22;;
43048;SDS011;28673;44.412;11.918;2024-03-02T05:21:55;12.18;;;6.38;;
43048;SDS011;28673;44.412;11.918;2024-03-02T05:24:20;9.68;;;6.55;;
43048;SDS011;28673;44.412;11.918;2024-03-02T05:26:46;9.63;;;6.88;;
43048;SDS011;28673;44.412;11.918;2024-03-02T05:29:12;9.48;;;6.35;;
43048;SDS011;28673;44.412;11.918;2024-03-02T05:31:37;9.93;;;7.35;;
43048;SDS011;28673;44.412;11.918;2024-03-02T05:34:03;10.68;;;7.70;;
43048;SDS011;28673;44.412;11.918;2024-03-02T05:36:30;23.85;;;14.40;;
43048;SDS011;28673;44.412;11.918;2024-03-02T05:38:56;27.08;;;15.55;;
43048;SDS011;28673;44.412;11.918;2024-03-02T05:41:22;21.50;;;12.57;;
43048;SDS011;28673;44.412;11.918;2024-03-02T05:43:48;15.52;;;11.70;;
43048;SDS011;28673;44.412;11.918;2024-03-02T05:46:14;19.77;;;10.68;;
43048;SDS011;28673;44.412;11.918;2024-03-02T05:48:40;16.48;;;10.90;;
43048;SDS011;28673;44.412;11.918;2024-03-02T05:51:06;14.07;;;10.05;;
43048;SDS011;28673;44.412;11.918;2024-03-02T05:53:32;13.98;;;12.45;;
43048;SDS011;28673;44.412;11.918;2024-03-02T05:55:58;15.45;;;10.88;;
43048;SDS011;28673;44.412;11.918;2024-03-02T05:58:24;12.90;;;9.90;;
43048;SDS011;28673;44.412;11.918;2024-03-02T06:01:03;13.90;;;10.13;;
43048;SDS011;28673;44.412;11.918;2024-03-02T06:03:30;12.50;;;9.32;;
43048;SDS011;28673;44.412;11.918;2024-03-02T06:05:56;11.05;;;9.05;;
43048;SDS011;28673;44.412;11.918;2024-03-02T06:08:22;16.90;;;10.20;;
43048;SDS011;28673;44.412;11.918;2024-03-02T06:10:47;11.65;;;9.00;;
43048;SDS011;28673;44.412;11.918;2024-03-02T06:13:13;11.70;;;9.00;;
43048;SDS011;28673;44.412;11.918;2024-03-02T06:15:39;13.65;;;9.70;;
43048;SDS011;28673;44.412;11.918;2024-03-02T06:18:05;17.75;;;9.45;;
43048;SDS011;28673;44.412;11.918;2024-03-02T06:20:33;12.10;;;9.18;;
43048;SDS011;28673;44.412;11.918;2024-03-02T06:22:58;9.35;;;8.32;;
43048;SDS011;28673;44.412;11.918;2024-03-02T06:25:24;10.25;;;7.35;;
43048;SDS011;28673;44.412;11.918;2024-03-02T06:27:50;12.75;;;8.15;;
43048;SDS011;28673;44.412;11.918;2024-03-02T06:30:16;11.48;;;8.63;;
43048;SDS011;28673;44.412;11.918;2024-03-02T06:32:42;14.40;;;9.75;;
43048;SDS011;28673;44.412;11.918;2024-03-02T06:35:09;9.45;;;7.07;;
43048;SDS011;28673;44.412;11.918;2024-03-02T06:37:36;9.57;;;8.20;;
43048;SDS011;28673;44.412;11.918;2024-03-02T06:40:02;14.15;;;9.30;;
43048;SDS011;28673;44.412;11.918;2024-03-02T06:42:27;11.95;;;10.07;;
43048;SDS011;28673;44.412;11.918;2024-03-02T06:44:58;12.70;;;9.68;;
43048;SDS011;28673;44.412;11.918;2024-03-02T06:47:24;13.02;;;9.15;;
43048;SDS011;28673;44.412;11.918;2024-03-02T06:49:50;15.18;;;9.45;;
43048;SDS011;28673;44.412;11.918;2024-03-02T06:52:16;14.88;;;10.10;;
43048;SDS011;28673;44.412;11.918;2024-03-02T06:54:42;12.05;;;9.65;;
43048;SDS011;28673;44.412;11.918;2024-03-02T06:57:07;19.27;;;9.15;;
43048;SDS011;28673;44.412;11.918;2024-03-02T06:59:33;11.38;;;10.00;;
43048;SDS011;28673;44.412;11.918;2024-03-02T07:01:59;13.00;;;9.15;;
43048;SDS011;28673;44.412;11.918;2024-03-02T07:04:25;14.00;;;9.23;;
43048;SDS011;28673;44.412;11.918;2024-03-02T07:06:50;17.38;;;9.10;;
43048;SDS011;28673;44.412;11.918;2024-03-02T07:09:16;12.30;;;9.38;;
43048;SDS011;28673;44.412;11.918;2024-03-02T07:11:42;10.35;;;8.45;;
43048;SDS011;28673;44.412;11.918;2024-03-02T07:14:08;13.00;;;10.35;;
43048;SDS011;28673;44.412;11.918;2024-03-02T07:16:34;11.18;;;8.73;;
43048;SDS011;28673;44.412;11.918;2024-03-02T07:19:03;14.18;;;8.98;;
43048;SDS011;28673;44.412;11.918;2024-03-02T07:21:29;11.40;;;9.75;;
43048;SDS011;28673;44.412;11.918;2024-03-02T07:23:54;13.40;;;10.35;;
43048;SDS011;28673;44.412;11.918;2024-03-02T07:26:20;15.25;;;9.13;;
43048;SDS011;28673;44.412;11.918;2024-03-02T07:28:47;13.57;;;9.60;;
43048;SDS011;28673;44.412;11.918;2024-03-02T07:31:13;15.20;;;9.75;;
43048;SDS011;28673;44.412;11.918;2024-03-02T07:33:39;11.50;;;8.63;;
43048;SDS011;28673;44.412;11.918;2024-03-02T07:36:05;11.00;;;9.25;;
43048;SDS011;28673;44.412;11.918;2024-03-02T07:38:31;11.07;;;9.52;;
43048;SDS011;28673;44.412;11.918;2024-03-02T07:40:59;11.60;;;8.63;;
43048;SDS011;28673;44.412;11.918;2024-03-02T07:43:25;16.67;;;10.23;;
43048;SDS011;28673;44.412;11.918;2024-03-02T07:45:51;18.05;;;10.23;;
43048;SDS011;28673;44.412;11.918;2024-03-02T07:48:17;11.10;;;9.45;;
43048;SDS011;28673;44.412;11.918;2024-03-02T07:50:43;14.07;;;9.40;;
43048;SDS011;28673;44.412;11.918;2024-03-02T07:53:09;15.35;;;9.50;;
43048;SDS011;28673;44.412;11.918;2024-03-02T07:55:35;10.95;;;8.77;;
43048;SDS011;28673;44.412;11.918;2024-03-02T07:58:01;14.20;;;8.10;;
43048;SDS011;28673;44.412;11.918;2024-03-02T08:00:27;11.23;;;9.13;;
43048;SDS011;28673;44.412;11.918;2024-03-02T08:02:53;10.40;;;8.38;;
43048;SDS011;28673;44.412;11.918;2024-03-02T08:05:19;12.07;;;8.38;;
43048;SDS011;28673;44.412;11.918;2024-03-02T08:07:45;8.98;;;7.63;;
43048;SDS011;28673;44.412;11.918;2024-03-02T08:10:12;11.27;;;7.90;;
43048;SDS011;28673;44.412;11.918;2024-03-02T08:12:38;19.13;;;8.32;;
43048;SDS011;28673;44.412;11.918;2024-03-02T08:15:04;10.15;;;7.65;;
43048;SDS011;28673;44.412;11.918;2024-03-02T08:17:30;11.07;;;8.10;;
43048;SDS011;28673;44.412;11.918;2024-03-02T08:19:56;12.18;;;6.97;;
43048;SDS011;28673;44.412;11.918;2024-03-02T08:22:23;8.52;;;7.15;;
43048;SDS011;28673;44.412;11.918;2024-03-02T08:24:50;8.45;;;6.97;;
43048;SDS011;28673;44.412;11.918;2024-03-02T08:27:16;8.60;;;6.15;;
43048;SDS011;28673;44.412;11.918;2024-03-02T08:33:32;8.23;;;5.32;;
43048;SDS011;28673;44.412;11.918;2024-03-02T08:35:58;9.00;;;6.22;;
43048;SDS011;28673;44.412;11.918;2024-03-02T08:38:24;6.05;;;4.55;;
43048;SDS011;28673;44.412;11.918;2024-03-02T08:40:50;8.15;;;5.45;;
43048;SDS011;28673;44.412;11.918;2024-03-02T08:43:16;6.32;;;5.15;;
43048;SDS011;28673;44.412;11.918;2024-03-02T08:45:42;8.73;;;4.95;;
43048;SDS011;28673;44.412;11.918;2024-03-02T08:48:09;7.63;;;5.40;;
43048;SDS011;28673;44.412;11.918;2024-03-02T08:50:35;8.23;;;5.47;;
43048;SDS011;28673;44.412;11.918;2024-03-02T08:53:02;6.30;;;5.53;;
43048;SDS011;28673;44.412;11.918;2024-03-02T08:55:31;6.40;;;5.18;;
43048;SDS011;28673;44.412;11.918;2024-03-02T08:57:56;7.00;;;4.60;;
43048;SDS011;28673;44.412;11.918;2024-03-02T09:00:23;6.60;;;4.50;;
43048;SDS011;28673;44.412;11.918;2024-03-02T09:02:49;5.55;;;4.60;;
43048;SDS011;28673;44.412;11.918;2024-03-02T09:05:15;5.57;;;4.30;;
43048;SDS011;28673;44.412;11.918;2024-03-02T09:07:41;7.95;;;5.30;;
43048;SDS011;28673;44.412;11.918;2024-03-02T09:10:07;5.63;;;4.50;;
43048;SDS011;28673;44.412;11.918;2024-03-02T09:12:33;7.30;;;4.85;;
43048;SDS011;28673;44.412;11.918;2024-03-02T09:15:00;5.45;;;4.60;;
43048;SDS011;28673;44.412;11.918;2024-03-02T09:17:27;7.30;;;5.15;;
43048;SDS011;28673;44.412;11.918;2024-03-02T09:19:53;5.85;;;4.40;;
43048;SDS011;28673;44.412;11.918;2024-03-02T09:22:19;6.53;;;4.32;;
43048;SDS011;28673;44.412;11.918;2024-03-02T09:24:45;4.72;;;3.85;;
43048;SDS011;28673;44.412;11.918;2024-03-02T09:27:10;6.05;;;4.30;;
43048;SDS011;28673;44.412;11.918;2024-03-02T09:29:36;5.38;;;3.78;;
43048;SDS011;28673;44.412;11.918;2024-03-02T09:32:03;4.75;;;3.67;;
43048;SDS011;28673;44.412;11.918;2024-03-02T09:34:30;4.60;;;3.53;;
43048;SDS011;28673;44.412;11.918;2024-03-02T09:36:55;8.05;;;4.15;;
43048;SDS011;28673;44.412;11.918;2024-03-02T09:39:21;5.47;;;3.13;;
43048;SDS011;28673;44.412;11.918;2024-03-02T09:41:47;3.40;;;2.95;;
43048;SDS011;28673;44.412;11.918;2024-03-02T09:44:13;4.55;;;2.88;;
43048;SDS011;28673;44.412;11.918;2024-03-02T09:46:39;4.97;;;3.08;;
43048;SDS011;28673;44.412;11.918;2024-03-02T09:49:05;4.25;;;3.30;;
43048;SDS011;28673;44.412;11.918;2024-03-02T09:51:31;4.63;;;2.60;;
43048;SDS011;28673;44.412;11.918;2024-03-02T09:53:57;3.67;;;2.30;;
43048;SDS011;28673;44.412;11.918;2024-03-02T09:56:25;3.03;;;2.45;;
43048;SDS011;28673;44.412;11.918;2024-03-02T09:58:51;5.40;;;2.00;;
43048;SDS011;28673;44.412;11.918;2024-03-02T10:01:17;2.83;;;2.30;;
43048;SDS011;28673;44.412;11.918;2024-03-02T10:03:44;2.83;;;1.98;;
43048;SDS011;28673;44.412;11.918;2024-03-02T10:06:24;3.08;;;2.15;;
43048;SDS011;28673;44.412;11.918;2024-03-02T10:08:50;3.30;;;2.35;;
43048;SDS011;28673;44.412;11.918;2024-03-02T10:11:26;3.30;;;1.90;;
43048;SDS011;28673;44.412;11.918;2024-03-02T10:14:11;3.72;;;2.05;;
43048;SDS011;28673;44.412;11.918;2024-03-02T10:16:42;6.97;;;2.20;;
43048;SDS011;28673;44.412;11.918;2024-03-02T10:19:15;2.60;;;1.87;;
43048;SDS011;28673;44.412;11.918;2024-03-02T10:21:48;4.13;;;2.05;;
43048;SDS011;28673;44.412;11.918;2024-03-02T10:24:16;4.00;;;2.45;;
43048;SDS011;28673;44.412;11.918;2024-03-02T10:26:48;2.17;;;1.50;;
43048;SDS011;28673;44.412;11.918;2024-03-02T10:29:14;1.77;;;1.25;;
43048;SDS011;28673;44.412;11.918;2024-03-02T10:31:41;2.13;;;1.52;;
43048;SDS011;28673;44.412;11.918;2024-03-02T10:34:09;1.63;;;1.30;;
43048;SDS011;28673;44.412;11.918;2024-03-02T10:36:36;2.78;;;1.52;;
43048;SDS011;28673;44.412;11.918;2024-03-02T10:39:05;1.42;;;1.25;;
43048;SDS011;28673;44.412;11.918;2024-03-02T10:41:33;4.40;;;1.35;;
43048;SDS011;28673;44.412;11.918;2024-03-02T10:44:04;2.83;;;1.60;;
43048;SDS011;28673;44.412;11.918;2024-03-02T10:46:36;2.88;;;1.77;;
43048;SDS011;28673;44.412;11.918;2024-03-02T10:49:03;2.42;;;1.73;;
43048;SDS011;28673;44.412;11.918;2024-03-02T10:51:30;7.13;;;1.63;;
43048;SDS011;28673;44.412;11.918;2024-03-02T10:54:00;4.30;;;1.63;;
43048;SDS011;28673;44.412;11.918;2024-03-02T10:56:29;1.60;;;1.48;;
43048;SDS011;28673;44.412;11.918;2024-03-02T11:01:24;3.78;;;1.48;;
43048;SDS011;28673;44.412;11.918;2024-03-02T11:03:51;3.38;;;1.67;;
43048;SDS011;28673;44.412;11.918;2024-03-02T11:06:18;4.53;;;2.00;;
43048;SDS011;28673;44.412;11.918;2024-03-02T11:08:44;2.00;;;1.17;;
43048;SDS011;28673;44.412;11.918;2024-03-02T11:11:18;0.80;;;0.75;;
43048;SDS011;28673;44.412;11.918;2024-03-02T11:13:51;1.95;;;0.88;;
43048;SDS011;28673;44.412;11.918;2024-03-02T11:16:33;1.55;;;1.05;;
43048;SDS011;28673;44.412;11.918;2024-03-02T11:19:07;1.75;;;1.00;;
43048;SDS011;28673;44.412;11.918;2024-03-02T11:21:38;4.03;;;1.10;;
43048;SDS011;28673;44.412;11.918;2024-03-02T11:26:52;1.15;;;1.00;;
43048;SDS011;28673;44.412;11.918;2024-03-02T11:32:05;3.65;;;1.55;;
43048;SDS011;28673;44.412;11.918;2024-03-02T11:34:39;2.60;;;1.52;;
43048;SDS011;28673;44.412;11.918;2024-03-02T11:37:14;1.27;;;1.17;;
43048;SDS011;28673;44.412;11.918;2024-03-02T11:39:49;1.83;;;1.40;;
43048;SDS011;28673;44.412;11.918;2024-03-02T11:42:15;2.13;;;1.48;;
43048;SDS011;28673;44.412;11.918;2024-03-02T11:44:42;1.40;;;1.30;;
43048;SDS011;28673;44.412;11.918;2024-03-02T11:47:13;1.23;;;1.08;;
43048;SDS011;28673;44.412;11.918;2024-03-02T11:49:42;1.35;;;1.25;;
43048;SDS011;28673;44.412;11.918;2024-03-02T11:52:11;5.25;;;1.50;;
43048;SDS011;28673;44.412;11.918;2024-03-02T11:54:42;6.50;;;1.67;;
43048;SDS011;28673;44.412;11.918;2024-03-02T11:57:14;1.83;;;1.40;;
43048;SDS011;28673;44.412;11.918;2024-03-02T12:02:19;2.10;;;1.63;;
43048;SDS011;28673;44.412;11.918;2024-03-02T12:04:46;1.50;;;1.40;;
43048;SDS011;28673;44.412;11.918;2024-03-02T12:07:19;1.35;;;1.15;;
43048;SDS011;28673;44.412;11.918;2024-03-02T12:09:49;1.75;;;1.15;;
43048;SDS011;28673;44.412;11.918;2024-03-02T12:12:25;3.08;;;2.50;;
43048;SDS011;28673;44.412;11.918;2024-03-02T12:14:52;2.35;;;1.30;;
43048;SDS011;28673;44.412;11.918;2024-03-02T12:17:20;3.28;;;1.55;;
43048;SDS011;28673;44.412;11.918;2024-03-02T12:19:47;3.45;;;1.35;;
43048;SDS011;28673;44.412;11.918;2024-03-02T12:22:13;1.30;;;1.10;;
43048;SDS011;28673;44.412;11.918;2024-03-02T12:24:40;1.48;;;1.27;;
43048;SDS011;28673;44.412;11.918;2024-03-02T12:27:07;1.23;;;1.02;;
43048;SDS011;28673;44.412;11.918;2024-03-02T12:29:33;1.40;;;1.30;;
43048;SDS011;28673;44.412;11.918;2024-03-02T12:31:59;3.63;;;1.35;;
43048;SDS011;28673;44.412;11.918;2024-03-02T12:34:27;1.70;;;1.13;;
43048;SDS011;28673;44.412;11.918;2024-03-02T12:36:53;1.55;;;1.10;;
43048;SDS011;28673;44.412;11.918;2024-03-02T12:39:19;2.47;;;1.45;;
43048;SDS011;28673;44.412;11.918;2024-03-02T12:41:49;2.78;;;1.30;;
43048;SDS011;28673;44.412;11.918;2024-03-02T12:44:19;1.88;;;1.30;;
43048;SDS011;28673;44.412;11.918;2024-03-02T12:46:45;4.47;;;2.20;;
43048;SDS011;28673;44.412;11.918;2024-03-02T12:49:12;1.33;;;1.13;;
43048;SDS011;28673;44.412;11.918;2024-03-02T12:51:41;4.53;;;2.08;;
43048;SDS011;28673;44.412;11.918;2024-03-02T12:54:08;27.77;;;6.63;;
43048;SDS011;28673;44.412;11.918;2024-03-02T12:56:38;2.45;;;1.20;;
43048;SDS011;28673;44.412;11.918;2024-03-02T12:59:04;2.63;;;1.55;;
43048;SDS011;28673;44.412;11.918;2024-03-02T13:01:30;5.32;;;1.95;;
43048;SDS011;28673;44.412;11.918;2024-03-02T13:03:57;4.03;;;2.30;;
43048;SDS011;28673;44.412;11.918;2024-03-02T13:06:23;3.17;;;2.33;;
43048;SDS011;28673;44.412;11.918;2024-03-02T13:08:53;1.45;;;1.25;;
43048;SDS011;28673;44.412;11.918;2024-03-02T13:11:18;4.15;;;2.28;;
43048;SDS011;28673;44.412;11.918;2024-03-02T13:13:46;27.58;;;6.35;;
43048;SDS011;28673;44.412;11.918;2024-03-02T13:16:12;1.80;;;1.17;;
43048;SDS011;28673;44.412;11.918;2024-03-02T13:18:38;2.33;;;1.40;;
43048;SDS011;28673;44.412;11.918;2024-03-02T13:21:05;3.20;;;1.63;;
43048;SDS011;28673;44.412;11.918;2024-03-02T13:23:31;2.53;;;1.58;;
43048;SDS011;28673;44.412;11.918;2024-03-02T13:25:57;2.15;;;1.60;;
43048;SDS011;28673;44.412;11.918;2024-03-02T13:28:24;2.08;;;0.98;;
43048;SDS011;28673;44.412;11.918;2024-03-02T13:30:50;3.65;;;1.60;;
43048;SDS011;28673;44.412;11.918;2024-03-02T13:33:16;2.25;;;1.30;;
43048;SDS011;28673;44.412;11.918;2024-03-02T13:35:51;1.77;;;1.60;;
43048;SDS011;28673;44.412;11.918;2024-03-02T13:38:18;1.88;;;1.55;;
43048;SDS011;28673;44.412;11.918;2024-03-02T13:40:44;5.38;;;2.17;;
43048;SDS011;28673;44.412;11.918;2024-03-02T13:43:11;2.35;;;1.58;;
43048;SDS011;28673;44.412;11.918;2024-03-02T13:45:39;4.57;;;1.90;;
43048;SDS011;28673;44.412;11.918;2024-03-02T13:48:04;2.90;;;1.20;;
43048;SDS011;28673;44.412;11.918;2024-03-02T13:50:30;1.77;;;1.25;;
43048;SDS011;28673;44.412;11.918;2024-03-02T13:52:57;1.10;;;1.00;;
43048;SDS011;28673;44.412;11.918;2024-03-02T13:55:22;1.48;;;1.20;;
43048;SDS011;28673;44.412;11.918;2024-03-02T13:57:48;4.85;;;1.60;;
43048;SDS011;28673;44.412;11.918;2024-03-02T14:00:17;1.50;;;1.23;;
43048;SDS011;28673;44.412;11.918;2024-03-02T14:02:45;2.50;;;1.20;;
43048;SDS011;28673;44.412;11.918;2024-03-02T14:05:11;2.60;;;1.30;;
43048;SDS011;28673;44.412;11.918;2024-03-02T14:07:37;2.47;;;1.40;;
43048;SDS011;28673;44.412;11.918;2024-03-02T14:10:04;1.58;;;1.35;;
43048;SDS011;28673;44.412;11.918;2024-03-02T14:12:30;3.63;;;1.75;;
43048;SDS011;28673;44.412;11.918;2024-03-02T14:14:56;1.20;;;0.93;;
43048;SDS011;28673;44.412;11.918;2024-03-02T14:17:26;1.88;;;1.52;;
43048;SDS011;28673;44.412;11.918;2024-03-02T14:19:51;3.85;;;1.48;;
43048;SDS011;28673;44.412;11.918;2024-03-02T14:22:19;2.15;;;1.30;;
43048;SDS011;28673;44.412;11.918;2024-03-02T14:24:45;3.80;;;1.30;;
43048;SDS011;28673;44.412;11.918;2024-03-02T14:27:11;1.38;;;1.10;;
43048;SDS011;28673;44.412;11.918;2024-03-02T14:29:39;4.63;;;1.33;;
43048;SDS011;28673;44.412;11.918;2024-03-02T14:32:05;2.28;;;1.52;;
43048;SDS011;28673;44.412;11.918;2024-03-02T14:34:31;4.82;;;1.80;;
43048;SDS011;28673;44.412;11.918;2024-03-02T14:36:58;1.40;;;1.15;;
43048;SDS011;28673;44.412;11.918;2024-03-02T14:39:24;3.05;;;1.40;;
43048;SDS011;28673;44.412;11.918;2024-03-02T14:41:51;1.85;;;1.35;;
43048;SDS011;28673;44.412;11.918;2024-03-02T14:44:17;2.67;;;1.25;;
43048;SDS011;28673;44.412;11.918;2024-03-02T14:46:43;4.35;;;1.38;;